Garcia del Cid — EHUU — position and weather

sailwx.info

Track history (hours):
 
Tides and Currents Weather Stations Pressure Air Temp Water Temp Dewpoint Dewpoint Depression Visibility Wind Speed Wind Dir Waves Ship Positions

Oceanographic research ship Garcia del Cid (Spain)

Detailed information on ship capabilities available from University of Delaware's Ocean Information Center.

Last reported at 2017-Nov-14 14:44 UTC. Time now 2017-Nov-22 07:23 UTC.
Position N 39°13' W 009°48'.

Length 30 m; draft 4.8 m.

Type: Dredging. MMSI: 224799000.

Date/timePositionNaut miles runAvg speedWind from/ knotsBaromVisibWave heightAir tempDewpointWater temp
2017-Nov-14 14:44N 39°13' W 009°48'6 7.8
2017-Nov-14 13:57N 39°07' W 009°49'3 7.5
2017-Nov-14 13:30N 39°04' W 009°49'4 7.7
2017-Nov-14 13:01N 38°60' W 009°49'4 7.8
2017-Nov-14 12:30N 38°56' W 009°49'4 7.8
2017-Nov-14 12:01N 38°52' W 009°49'4 7.9
2017-Nov-14 11:30N 38°48' W 009°50'4 7.9
2017-Nov-14 11:00N 38°44' W 009°49'4 7.8
2017-Nov-14 10:30N 38°40' W 009°49'5 9.4
2017-Nov-14 10:00N 38°36' W 009°47'5 9.7
2017-Nov-14 09:30N 38°31' W 009°46'5 9.3
2017-Nov-14 09:01N 38°26' W 009°45'5 9.3
2017-Nov-14 08:30N 38°22' W 009°44'43 7.7
2017-Nov-14 02:52N 37°40' W 009°33'3 7.5
2017-Nov-14 02:31N 37°37' W 009°32'8 7.4
2017-Nov-14 01:29N 37°30' W 009°29'16 7.2
2017-Nov-13 23:19N 37°14' W 009°25'  
Track history (hours):
 
Tides and Currents Weather Stations Pressure Air Temp Water Temp Dewpoint Dewpoint Depression Visibility Wind Speed Wind Dir Waves Ship Positions

Oceanographic research ship Garcia del Cid (Spain)

Detailed information on ship capabilities available from University of Delaware's Ocean Information Center.

Last reported at 2017-Nov-14 14:44 UTC. Time now 2017-Nov-22 07:23 UTC.
Position N 39°13' W 009°48'.

Length 30 m; draft 4.8 m.

Type: Dredging. MMSI: 224799000.

Date/timePositionNaut miles runAvg speedWind from/ knotsBaromVisibWave heightAir tempDewpointWater temp
2017-Nov-14 14:44N 39°13' W 009°48'6 7.8
2017-Nov-14 13:57N 39°07' W 009°49'3 7.5
2017-Nov-14 13:30N 39°04' W 009°49'4 7.7
2017-Nov-14 13:01N 38°60' W 009°49'4 7.8
2017-Nov-14 12:30N 38°56' W 009°49'4 7.8
2017-Nov-14 12:01N 38°52' W 009°49'4 7.9
2017-Nov-14 11:30N 38°48' W 009°50'4 7.9
2017-Nov-14 11:00N 38°44' W 009°49'4 7.8
2017-Nov-14 10:30N 38°40' W 009°49'5 9.4
2017-Nov-14 10:00N 38°36' W 009°47'5 9.7
2017-Nov-14 09:30N 38°31' W 009°46'5 9.3
2017-Nov-14 09:01N 38°26' W 009°45'5 9.3
2017-Nov-14 08:30N 38°22' W 009°44'43 7.7
2017-Nov-14 02:52N 37°40' W 009°33'3 7.5
2017-Nov-14 02:31N 37°37' W 009°32'8 7.4
2017-Nov-14 01:29N 37°30' W 009°29'16 7.2
2017-Nov-13 23:19N 37°14' W 009°25'  

Dump ship's entire track history